createdAt,value
2023-06-11T00:01:09.815Z,19.72
2023-06-11T00:03:42.231Z,19.68
2023-06-11T00:06:12.649Z,19.60
2023-06-11T00:08:40.347Z,19.59
2023-06-11T00:11:07.978Z,19.60
2023-06-11T00:13:36.108Z,19.61
2023-06-11T00:16:03.944Z,19.58
2023-06-11T00:18:32.255Z,19.55
2023-06-11T00:21:01.328Z,19.52
2023-06-11T00:23:29.038Z,19.55
2023-06-11T00:25:57.197Z,19.49
2023-06-11T00:28:24.903Z,19.49
2023-06-11T00:30:53.805Z,19.43
2023-06-11T00:33:21.484Z,19.39
2023-06-11T00:35:49.714Z,19.38
2023-06-11T00:38:20.770Z,19.31
2023-06-11T00:40:49.022Z,19.27
2023-06-11T00:43:18.348Z,19.23
2023-06-11T00:45:46.445Z,19.14
2023-06-11T00:48:14.583Z,19.10
2023-06-11T00:50:47.001Z,19.11
2023-06-11T00:53:15.198Z,19.10
2023-06-11T00:55:44.277Z,19.05
2023-06-11T00:58:15.705Z,19.02
2023-06-11T01:00:46.580Z,18.98
2023-06-11T01:03:19.117Z,18.89
2023-06-11T01:05:50.486Z,18.72
2023-06-11T01:08:21.048Z,18.68
2023-06-11T01:10:50.457Z,18.62
2023-06-11T01:13:18.310Z,18.56
2023-06-11T01:15:46.384Z,18.49
2023-06-11T01:18:20.451Z,18.43
2023-06-11T01:20:52.863Z,18.34
2023-06-11T01:23:34.583Z,18.26
2023-06-11T01:26:17.883Z,18.13
2023-06-11T01:28:50.422Z,18.09
2023-06-11T01:31:20.272Z,17.98
2023-06-11T01:33:48.441Z,17.89
2023-06-11T01:36:18.309Z,17.88
2023-06-11T01:38:46.604Z,17.90
2023-06-11T01:41:14.516Z,17.87
2023-06-11T01:43:42.878Z,17.84
2023-06-11T01:46:11.973Z,17.84
2023-06-11T01:48:39.655Z,17.80
2023-06-11T01:51:08.421Z,17.76
2023-06-11T01:53:36.135Z,17.70
2023-06-11T01:56:04.342Z,17.66
2023-06-11T01:58:32.104Z,17.65
2023-06-11T02:01:00.348Z,17.67
2023-06-11T02:03:29.490Z,17.57
2023-06-11T02:05:57.752Z,17.52
2023-06-11T02:08:25.431Z,17.47
2023-06-11T02:10:53.063Z,17.38
2023-06-11T02:13:21.161Z,17.40
2023-06-11T02:15:48.851Z,17.39
2023-06-11T02:18:16.933Z,17.33
2023-06-11T02:20:45.945Z,17.23
2023-06-11T02:23:14.020Z,17.12
2023-06-11T02:25:41.735Z,17.10
2023-06-11T02:28:09.993Z,17.06
2023-06-11T02:30:37.665Z,17.06
2023-06-11T02:33:05.925Z,17.00
2023-06-11T02:35:33.624Z,16.95
2023-06-11T02:38:02.727Z,16.95
2023-06-11T02:40:31.250Z,16.92
2023-06-11T02:42:58.947Z,16.88
2023-06-11T02:45:26.968Z,16.87
2023-06-11T02:47:54.730Z,16.85
2023-06-11T02:50:22.754Z,16.87
2023-06-11T02:52:50.464Z,16.84
2023-06-11T02:55:19.642Z,16.78
2023-06-11T02:57:47.726Z,16.76
2023-06-11T03:00:15.913Z,16.70
2023-06-11T03:02:44.024Z,16.63
2023-06-11T03:05:12.198Z,16.63
2023-06-11T03:07:40.704Z,16.61
2023-06-11T03:10:09.408Z,16.58
2023-06-11T03:12:38.954Z,16.61
2023-06-11T03:15:08.052Z,16.61
2023-06-11T03:17:35.845Z,16.61
2023-06-11T03:20:03.973Z,16.58
2023-06-11T03:22:31.735Z,16.58
2023-06-11T03:24:59.829Z,16.54
2023-06-11T03:27:27.543Z,16.44
2023-06-11T03:29:56.661Z,16.42
2023-06-11T03:32:24.476Z,16.44
2023-06-11T03:34:53.333Z,16.41
2023-06-11T03:37:21.497Z,16.39
2023-06-11T03:39:49.261Z,16.38
2023-06-11T03:42:17.495Z,16.41
2023-06-11T03:44:45.189Z,16.37
2023-06-11T03:47:14.918Z,16.34
2023-06-11T03:49:42.704Z,16.33
2023-06-11T03:52:11.067Z,16.31
2023-06-11T03:54:38.818Z,16.24
2023-06-11T03:57:07.576Z,16.29
2023-06-11T03:59:35.280Z,16.30
2023-06-11T04:02:03.119Z,16.29
2023-06-11T04:04:34.016Z,16.28
2023-06-11T04:07:01.727Z,16.30
2023-06-11T04:09:30.506Z,16.30
2023-06-11T04:11:58.673Z,16.29
2023-06-11T04:14:26.822Z,16.41
2023-06-11T04:16:54.613Z,16.40
2023-06-11T04:19:22.970Z,16.37
2023-06-11T04:21:51.999Z,16.39
2023-06-11T04:24:19.705Z,16.42
2023-06-11T04:26:49.114Z,16.47
2023-06-11T04:29:19.436Z,16.45
2023-06-11T04:31:48.220Z,16.43
2023-06-11T04:34:18.167Z,16.45
2023-06-11T04:36:46.644Z,16.44
2023-06-11T04:39:15.825Z,16.45
2023-06-11T04:41:44.399Z,16.47
2023-06-11T04:44:12.568Z,16.43
2023-06-11T04:46:42.074Z,16.53
2023-06-11T04:49:10.209Z,16.54
2023-06-11T04:51:41.660Z,16.55
2023-06-11T04:54:09.829Z,16.53
2023-06-11T04:56:38.944Z,16.65
2023-06-11T04:59:07.518Z,16.65
2023-06-11T05:01:38.411Z,16.69
2023-06-11T05:04:06.407Z,16.73
2023-06-11T05:06:35.083Z,16.75
2023-06-11T05:09:02.823Z,16.87
2023-06-11T05:11:30.905Z,16.87
2023-06-11T05:14:00.232Z,16.87
2023-06-11T05:16:27.996Z,16.93
2023-06-11T05:18:56.134Z,17.02
2023-06-11T05:21:23.832Z,17.06
2023-06-11T05:23:52.012Z,17.09
2023-06-11T05:26:20.247Z,17.10
2023-06-11T05:28:48.397Z,17.12
2023-06-11T05:31:17.492Z,17.15
2023-06-11T05:33:45.560Z,17.24
2023-06-11T05:36:13.272Z,17.24
2023-06-11T05:38:41.544Z,17.24
2023-06-11T05:41:09.269Z,17.26
2023-06-11T05:43:37.866Z,17.30
2023-06-11T05:46:06.093Z,17.34
2023-06-11T05:48:35.533Z,17.39
2023-06-11T05:51:03.201Z,17.45
2023-06-11T05:53:31.299Z,17.51
2023-06-11T05:56:04.317Z,17.57
2023-06-11T05:58:33.537Z,17.66
2023-06-11T06:01:03.447Z,17.73
2023-06-11T06:03:32.184Z,17.76
2023-06-11T06:06:02.625Z,17.77
2023-06-11T06:08:31.788Z,17.89
2023-06-11T06:11:00.056Z,17.85
2023-06-11T06:13:28.623Z,17.96
2023-06-11T06:15:56.290Z,18.06
2023-06-11T06:18:24.855Z,18.16
2023-06-11T06:20:52.542Z,18.17
2023-06-11T06:23:22.365Z,18.24
2023-06-11T06:25:50.041Z,18.31
2023-06-11T06:28:18.628Z,18.39
2023-06-11T06:30:46.371Z,18.46
2023-06-11T06:33:14.580Z,18.58
2023-06-11T06:35:42.668Z,18.68
2023-06-11T06:38:10.384Z,18.74
2023-06-11T06:40:40.031Z,18.85
2023-06-11T06:43:07.870Z,18.88
2023-06-11T06:45:36.357Z,18.89
2023-06-11T06:48:04.097Z,18.92
2023-06-11T06:50:32.902Z,18.98
2023-06-11T06:53:00.778Z,19.03
2023-06-11T06:55:28.545Z,19.18
2023-06-11T06:57:57.996Z,19.22
2023-06-11T07:00:26.336Z,19.29
2023-06-11T07:02:54.127Z,19.35
2023-06-11T07:05:22.261Z,19.40
2023-06-11T07:07:49.959Z,19.45
2023-06-11T07:10:19.367Z,19.53
2023-06-11T07:12:47.114Z,19.65
2023-06-11T07:15:16.806Z,19.71
2023-06-11T07:17:44.483Z,19.76
2023-06-11T07:20:13.928Z,19.86
2023-06-11T07:22:42.335Z,19.88
2023-06-11T07:25:10.796Z,19.94
2023-06-11T07:27:38.934Z,20.03
2023-06-11T07:30:08.137Z,20.10
2023-06-11T07:32:38.751Z,20.17
2023-06-11T07:35:07.081Z,20.25
2023-06-11T07:37:35.392Z,20.33
2023-06-11T07:40:05.133Z,20.42
2023-06-11T07:42:32.948Z,20.51
2023-06-11T07:45:00.728Z,20.55
2023-06-11T07:47:28.773Z,20.69
2023-06-11T07:49:57.969Z,20.74
2023-06-11T07:52:26.765Z,20.78
2023-06-11T07:54:54.419Z,20.90
2023-06-11T07:57:22.509Z,21.01
2023-06-11T07:59:50.593Z,21.13
2023-06-11T08:02:18.341Z,21.20
2023-06-11T08:04:46.597Z,21.33
2023-06-11T08:07:15.862Z,21.37
2023-06-11T08:09:43.979Z,21.40
2023-06-11T08:12:13.059Z,21.41
2023-06-11T08:14:42.011Z,21.47
2023-06-11T08:17:10.920Z,21.58
2023-06-11T08:19:38.724Z,21.66
2023-06-11T08:22:07.466Z,21.74
2023-06-11T08:24:36.599Z,21.84
2023-06-11T08:27:04.956Z,21.91
2023-06-11T08:29:33.149Z,22.10
2023-06-11T08:32:01.652Z,22.14
2023-06-11T08:34:29.431Z,22.23
2023-06-11T08:36:57.278Z,22.30
2023-06-11T08:39:25.627Z,22.41
2023-06-11T08:41:55.044Z,22.51
2023-06-11T08:44:26.231Z,22.57
2023-06-11T08:46:56.728Z,22.66
2023-06-11T08:49:25.343Z,22.86
2023-06-11T08:51:53.006Z,22.96
2023-06-11T08:54:21.499Z,23.02
2023-06-11T08:56:49.841Z,23.06
2023-06-11T08:59:20.542Z,23.21
2023-06-11T09:01:51.886Z,23.33
2023-06-11T09:04:20.340Z,23.44
2023-06-11T09:06:52.477Z,23.55
2023-06-11T09:09:21.043Z,23.65
2023-06-11T09:11:48.936Z,23.71
2023-06-11T09:14:18.372Z,23.80
2023-06-11T09:16:47.634Z,23.84
2023-06-11T09:19:17.181Z,23.95
2023-06-11T09:21:52.162Z,24.08
2023-06-11T09:24:21.584Z,24.17
2023-06-11T09:26:51.114Z,24.30
2023-06-11T09:29:20.525Z,24.41
2023-06-11T09:31:48.323Z,24.53
2023-06-11T09:34:23.473Z,24.61
2023-06-11T09:36:52.927Z,24.66
2023-06-11T09:39:21.636Z,24.75
2023-06-11T09:41:50.149Z,24.81
2023-06-11T09:44:19.067Z,24.83
2023-06-11T09:46:48.845Z,24.95
2023-06-11T09:49:17.885Z,25.15
2023-06-11T09:51:45.906Z,25.24
2023-06-11T09:54:15.127Z,25.35
2023-06-11T09:56:43.932Z,25.43
2023-06-11T09:59:13.262Z,25.53
2023-06-11T10:01:42.727Z,25.66
2023-06-11T10:04:12.082Z,25.83
2023-06-11T10:06:45.341Z,25.85
2023-06-11T10:09:15.526Z,25.91
2023-06-11T10:11:45.210Z,25.96
2023-06-11T10:14:14.294Z,26.14
2023-06-11T10:16:42.669Z,26.08
2023-06-11T10:19:12.597Z,26.20
2023-06-11T10:21:44.462Z,26.33
2023-06-11T10:24:22.387Z,26.43
2023-06-11T10:27:05.971Z,26.51
2023-06-11T10:29:39.482Z,26.56
2023-06-11T10:32:17.848Z,26.56
2023-06-11T10:34:50.110Z,26.68
2023-06-11T10:37:28.996Z,26.77
2023-06-11T10:39:57.122Z,26.83
2023-06-11T10:42:26.324Z,26.93
2023-06-11T10:44:58.287Z,26.81
2023-06-11T10:47:26.699Z,26.91
2023-06-11T10:50:06.719Z,27.05
2023-06-11T10:52:34.923Z,27.05
2023-06-11T10:55:02.758Z,26.98
2023-06-11T10:57:30.952Z,26.97
2023-06-11T10:59:59.277Z,26.89
2023-06-11T11:02:28.550Z,26.87
2023-06-11T11:04:57.666Z,27.03
2023-06-11T11:07:35.828Z,27.28
2023-06-11T11:10:03.800Z,27.37
2023-06-11T11:12:37.628Z,27.54
2023-06-11T11:15:06.587Z,27.68
2023-06-11T11:17:35.017Z,27.75
2023-06-11T11:20:08.906Z,27.40
2023-06-11T11:22:37.089Z,27.19
2023-06-11T11:25:06.652Z,27.12
2023-06-11T11:27:38.540Z,27.17
2023-06-11T11:30:07.668Z,27.40
2023-06-11T11:32:37.486Z,27.52
2023-06-11T11:35:08.162Z,27.48
2023-06-11T11:37:36.431Z,27.34
2023-06-11T11:40:09.082Z,27.19
2023-06-11T11:42:46.689Z,26.87
2023-06-11T11:45:15.657Z,26.80
2023-06-11T11:47:44.375Z,26.93
2023-06-11T11:50:24.319Z,26.98
2023-06-11T11:53:04.660Z,27.18
2023-06-11T11:55:41.998Z,27.28
2023-06-11T11:58:17.681Z,27.61
2023-06-11T12:00:50.436Z,27.78
2023-06-11T12:03:21.390Z,27.58
2023-06-11T12:05:59.501Z,27.39
2023-06-11T12:08:28.604Z,27.13
2023-06-11T12:10:56.511Z,27.02
2023-06-11T12:13:24.389Z,27.07
2023-06-11T12:15:52.646Z,27.03
2023-06-11T12:18:20.612Z,26.97
2023-06-11T12:20:49.304Z,26.74
2023-06-11T12:23:18.431Z,26.91
2023-06-11T12:25:46.595Z,27.15
2023-06-11T12:28:14.364Z,27.38
2023-06-11T12:30:43.217Z,27.61
2023-06-11T12:33:11.677Z,27.82
2023-06-11T12:35:39.848Z,27.95
2023-06-11T12:38:07.919Z,28.05
2023-06-11T12:40:37.944Z,28.07
2023-06-11T12:43:06.116Z,28.05
2023-06-11T12:45:38.215Z,28.06
2023-06-11T12:48:06.723Z,28.12
2023-06-11T12:50:34.528Z,28.04
2023-06-11T12:53:03.523Z,27.74
2023-06-11T12:55:31.505Z,27.69
2023-06-11T12:58:00.554Z,27.84
2023-06-11T13:00:31.489Z,27.94
2023-06-11T13:02:59.607Z,28.00
2023-06-11T13:05:27.821Z,27.88
2023-06-11T13:07:56.394Z,27.89
2023-06-11T13:10:26.155Z,27.89
2023-06-11T13:12:56.535Z,27.82
2023-06-11T13:15:25.554Z,27.69
2023-06-11T13:17:53.330Z,27.49
2023-06-11T13:20:22.931Z,27.49
2023-06-11T13:22:51.076Z,27.47
2023-06-11T13:25:18.988Z,27.62
2023-06-11T13:27:47.441Z,27.83
2023-06-11T13:30:15.841Z,27.75
2023-06-11T13:32:47.108Z,27.81
2023-06-11T13:35:15.410Z,27.87
2023-06-11T13:37:43.449Z,27.97
2023-06-11T13:40:12.719Z,28.11
2023-06-11T13:42:41.226Z,28.18
2023-06-11T13:45:09.860Z,28.25
2023-06-11T13:47:37.525Z,28.36
2023-06-11T13:50:07.881Z,28.45
2023-06-11T13:52:36.022Z,28.58
2023-06-11T13:55:03.802Z,28.44
2023-06-11T13:57:32.653Z,28.16
2023-06-11T14:00:02.040Z,27.84
2023-06-11T14:02:29.793Z,27.59
2023-06-11T14:04:57.734Z,27.29
2023-06-11T14:07:27.068Z,27.15
2023-06-11T14:09:56.691Z,27.16
2023-06-11T14:12:24.734Z,27.30
2023-06-11T14:14:54.497Z,27.43
2023-06-11T14:17:22.712Z,27.60
2023-06-11T14:19:50.813Z,27.87
2023-06-11T14:22:18.840Z,28.10
2023-06-11T14:24:48.110Z,28.20
2023-06-11T14:27:15.802Z,28.38
2023-06-11T14:29:43.780Z,28.50
2023-06-11T14:32:14.197Z,28.61
2023-06-11T14:34:43.928Z,28.60
2023-06-11T14:37:12.410Z,28.48
2023-06-11T14:39:40.506Z,28.41
2023-06-11T14:42:10.250Z,28.36
2023-06-11T14:44:37.961Z,28.21
2023-06-11T14:47:06.738Z,28.12
2023-06-11T14:49:35.284Z,28.06
2023-06-11T14:52:09.339Z,28.10
2023-06-11T14:54:37.297Z,28.15
2023-06-11T14:57:14.094Z,28.10
2023-06-11T14:59:42.346Z,28.12
2023-06-11T15:02:10.640Z,28.14
2023-06-11T15:04:40.257Z,28.24
2023-06-11T15:07:20.266Z,28.22
2023-06-11T15:09:53.067Z,28.29
2023-06-11T15:12:22.688Z,28.27
2023-06-11T15:14:50.381Z,28.29
2023-06-11T15:17:18.627Z,28.14
2023-06-11T15:19:46.459Z,27.93
2023-06-11T15:22:14.699Z,27.69
2023-06-11T15:24:42.416Z,27.50
2023-06-11T15:27:10.771Z,27.25
2023-06-11T15:29:39.876Z,26.96
2023-06-11T15:32:08.926Z,26.83
2023-06-11T15:34:36.714Z,26.70
2023-06-11T15:37:05.268Z,26.72
2023-06-11T15:39:32.921Z,26.68
2023-06-11T15:42:00.623Z,26.63
2023-06-11T15:44:28.619Z,26.66
2023-06-11T15:46:57.642Z,26.71
2023-06-11T15:49:25.362Z,26.79
2023-06-11T15:51:53.480Z,26.84
2023-06-11T15:54:21.260Z,26.92
2023-06-11T15:56:49.565Z,26.93
2023-06-11T15:59:17.418Z,26.94
2023-06-11T16:01:45.184Z,26.98
2023-06-11T16:04:15.341Z,26.99
2023-06-11T16:06:43.115Z,26.95
2023-06-11T16:09:10.786Z,26.89
2023-06-11T16:11:39.347Z,26.74
2023-06-11T16:14:06.980Z,26.60
2023-06-11T16:16:35.301Z,26.45
2023-06-11T16:19:03.496Z,26.37
2023-06-11T16:21:32.502Z,26.31
2023-06-11T16:24:00.362Z,26.32
2023-06-11T16:26:28.113Z,26.32
2023-06-11T16:28:56.671Z,26.33
2023-06-11T16:31:24.789Z,26.34
2023-06-11T16:33:58.346Z,26.33
2023-06-11T16:36:27.213Z,26.34
2023-06-11T16:39:01.220Z,26.28
2023-06-11T16:41:34.223Z,26.20
2023-06-11T16:44:02.144Z,26.15
2023-06-11T16:46:29.946Z,26.14
2023-06-11T16:48:58.000Z,26.09
2023-06-11T16:51:25.780Z,26.06
2023-06-11T16:53:53.888Z,26.02
2023-06-11T16:56:23.162Z,26.00
2023-06-11T16:58:56.192Z,26.04
2023-06-11T17:01:24.644Z,25.97
2023-06-11T17:03:53.076Z,25.99
2023-06-11T17:06:20.914Z,25.94
2023-06-11T17:08:48.984Z,25.87
2023-06-11T17:11:16.675Z,25.85
2023-06-11T17:13:46.123Z,25.81
2023-06-11T17:16:14.902Z,25.77
2023-06-11T17:18:44.249Z,25.75
2023-06-11T17:21:12.390Z,25.72
2023-06-11T17:23:40.137Z,25.67
2023-06-11T17:26:08.402Z,25.61
2023-06-11T17:28:36.815Z,25.62
2023-06-11T17:31:06.544Z,25.61
2023-06-11T17:33:34.312Z,25.56
2023-06-11T17:36:02.023Z,25.54
2023-06-11T17:38:30.256Z,25.54
2023-06-11T17:40:58.135Z,25.51
2023-06-11T17:43:26.166Z,25.48
2023-06-11T17:45:53.850Z,25.42
2023-06-11T17:48:23.862Z,25.40
2023-06-11T17:50:51.546Z,25.35
2023-06-11T17:53:19.690Z,25.26
2023-06-11T17:55:50.305Z,25.17
2023-06-11T17:58:18.423Z,25.10
2023-06-11T18:00:46.539Z,25.05
2023-06-11T18:03:14.326Z,24.94
2023-06-11T18:05:43.748Z,24.88
2023-06-11T18:08:11.484Z,24.82
2023-06-11T18:10:39.273Z,24.81
2023-06-11T18:13:07.069Z,24.73
2023-06-11T18:15:36.343Z,24.71
2023-06-11T18:18:06.294Z,24.63
2023-06-11T18:20:34.614Z,24.58
2023-06-11T18:23:03.862Z,24.47
2023-06-11T18:25:32.107Z,24.40
2023-06-11T18:28:00.593Z,24.34
2023-06-11T18:30:28.721Z,24.30
2023-06-11T18:32:56.477Z,24.23
2023-06-11T18:35:24.553Z,24.18
2023-06-11T18:37:52.360Z,24.07
2023-06-11T18:40:22.000Z,24.02
2023-06-11T18:42:49.709Z,24.03
2023-06-11T18:45:17.828Z,23.98
2023-06-11T18:47:45.568Z,23.99
2023-06-11T18:50:13.598Z,23.95
2023-06-11T18:52:41.774Z,23.87
2023-06-11T18:55:10.213Z,23.81
2023-06-11T18:57:39.551Z,23.80
2023-06-11T19:00:08.450Z,23.74
2023-06-11T19:02:36.688Z,23.68
2023-06-11T19:05:04.674Z,23.66
2023-06-11T19:07:33.254Z,23.62
2023-06-11T19:10:01.231Z,23.55
2023-06-11T19:12:28.986Z,23.53
2023-06-11T19:14:58.366Z,23.43
2023-06-11T19:17:26.001Z,23.38
2023-06-11T19:19:54.936Z,23.33
2023-06-11T19:22:22.683Z,23.27
2023-06-11T19:24:50.878Z,23.24
2023-06-11T19:27:19.199Z,23.17
2023-06-11T19:29:47.705Z,23.13
2023-06-11T19:32:17.155Z,23.04
2023-06-11T19:34:44.990Z,23.03
2023-06-11T19:37:14.052Z,22.95
2023-06-11T19:39:41.809Z,22.91
2023-06-11T19:42:10.109Z,22.91
2023-06-11T19:44:37.871Z,22.83
2023-06-11T19:47:06.630Z,22.78
2023-06-11T19:49:35.946Z,22.75
2023-06-11T19:52:04.220Z,22.71
2023-06-11T19:54:46.530Z,22.65
2023-06-11T19:57:18.772Z,22.59
2023-06-11T19:59:46.592Z,22.55
2023-06-11T20:02:14.533Z,22.49
2023-06-11T20:04:44.180Z,22.47
2023-06-11T20:07:12.103Z,22.39
2023-06-11T20:09:41.931Z,22.35
2023-06-11T20:12:10.191Z,22.30
2023-06-11T20:14:38.689Z,22.26
2023-06-11T20:17:06.624Z,22.22
2023-06-11T20:19:37.194Z,22.17
2023-06-11T20:22:07.500Z,22.14
2023-06-11T20:24:35.747Z,22.17
2023-06-11T20:27:03.484Z,22.18
2023-06-11T20:29:32.078Z,22.11
2023-06-11T20:32:00.075Z,22.11
2023-06-11T20:34:28.249Z,22.10
2023-06-11T20:36:56.365Z,22.07
2023-06-11T20:39:26.690Z,22.02
2023-06-11T20:41:54.800Z,21.98
2023-06-11T20:44:22.956Z,21.97
2023-06-11T20:46:51.261Z,21.90
2023-06-11T20:49:19.504Z,21.85
2023-06-11T20:51:47.250Z,21.78
2023-06-11T20:54:15.504Z,21.77
2023-06-11T20:56:44.533Z,21.76
2023-06-11T20:59:12.311Z,21.70
2023-06-11T21:01:40.674Z,21.64
2023-06-11T21:04:08.563Z,21.60
2023-06-11T21:06:39.142Z,21.54
2023-06-11T21:09:06.658Z,21.46
2023-06-11T21:11:34.769Z,21.48
2023-06-11T21:14:13.402Z,21.47
2023-06-11T21:16:42.823Z,21.42
2023-06-11T21:19:10.619Z,21.36
2023-06-11T21:21:39.150Z,21.35
2023-06-11T21:24:07.489Z,21.32
2023-06-11T21:26:36.027Z,21.24
2023-06-11T21:29:05.891Z,21.17
2023-06-11T21:31:34.332Z,21.12
2023-06-11T21:34:02.439Z,21.09
2023-06-11T21:36:30.518Z,21.05
2023-06-11T21:38:58.187Z,20.97
2023-06-11T21:41:27.201Z,20.90
2023-06-11T21:43:54.968Z,20.83
2023-06-11T21:46:24.174Z,20.79
2023-06-11T21:48:52.356Z,20.71
2023-06-11T21:51:21.738Z,20.68
2023-06-11T21:53:49.424Z,20.67
2023-06-11T21:56:17.575Z,20.67
2023-06-11T21:58:45.230Z,20.57
2023-06-11T22:01:13.446Z,20.52
2023-06-11T22:03:42.535Z,20.45
2023-06-11T22:06:11.242Z,20.39
2023-06-11T22:08:38.927Z,20.35
2023-06-11T22:11:07.011Z,20.29
2023-06-11T22:13:34.686Z,20.27
2023-06-11T22:16:03.024Z,20.27
2023-06-11T22:18:33.950Z,20.20
2023-06-11T22:21:03.564Z,20.13
2023-06-11T22:23:45.652Z,20.13
2023-06-11T22:26:19.579Z,20.10
2023-06-11T22:28:47.383Z,20.07
2023-06-11T22:31:15.319Z,20.06
2023-06-11T22:33:44.925Z,20.00
2023-06-11T22:36:14.051Z,19.97
2023-06-11T22:38:42.146Z,19.90
2023-06-11T22:41:10.364Z,19.86
2023-06-11T22:43:38.655Z,19.75
2023-06-11T22:46:06.480Z,19.72
2023-06-11T22:48:34.603Z,19.70
2023-06-11T22:51:02.417Z,19.66
2023-06-11T22:53:33.389Z,19.62
2023-06-11T22:56:02.412Z,19.59
2023-06-11T22:58:31.491Z,19.55
2023-06-11T23:00:59.700Z,19.53
2023-06-11T23:03:27.900Z,19.47
2023-06-11T23:05:55.658Z,19.40
2023-06-11T23:08:23.381Z,19.32
2023-06-11T23:10:52.502Z,19.30
2023-06-11T23:13:20.507Z,19.30
2023-06-11T23:15:48.294Z,19.28
2023-06-11T23:18:19.322Z,19.22
2023-06-11T23:20:47.725Z,19.19
2023-06-11T23:23:17.054Z,19.19
2023-06-11T23:25:45.508Z,19.15
2023-06-11T23:28:15.880Z,19.09
2023-06-11T23:30:43.626Z,19.06
2023-06-11T23:33:14.277Z,18.95
2023-06-11T23:35:43.160Z,18.94
2023-06-11T23:38:11.170Z,18.93
2023-06-11T23:40:39.431Z,18.85
2023-06-11T23:43:07.164Z,18.83
2023-06-11T23:45:36.845Z,18.82
2023-06-11T23:48:04.799Z,18.75
2023-06-11T23:50:33.336Z,18.71
2023-06-11T23:53:01.149Z,18.66
2023-06-11T23:55:29.255Z,18.60
2023-06-11T23:58:18.728Z,18.60
